sensor_id;sensor_type;location;lat;lon;timestamp;pressure;altitude;pressure_sealevel;temperature;humidity
18167;BME280;9208;42.688;23.404;2023-05-07T00:02:21;95713.78;;;12.62;100.00
18167;BME280;9208;42.688;23.404;2023-05-07T00:04:46;95715.94;;;12.53;100.00
18167;BME280;9208;42.688;23.404;2023-05-07T00:07:12;95722.59;;;12.46;100.00
18167;BME280;9208;42.688;23.404;2023-05-07T00:09:37;95714.25;;;12.35;100.00
18167;BME280;9208;42.688;23.404;2023-05-07T00:12:03;95719.19;;;12.31;100.00
18167;BME280;9208;42.688;23.404;2023-05-07T00:14:28;95721.47;;;12.33;100.00
18167;BME280;9208;42.688;23.404;2023-05-07T00:16:54;95727.91;;;12.30;100.00
18167;BME280;9208;42.688;23.404;2023-05-07T00:19:20;95721.31;;;12.22;100.00
18167;BME280;9208;42.688;23.404;2023-05-07T00:21:45;95720.25;;;12.14;100.00
18167;BME280;9208;42.688;23.404;2023-05-07T00:24:11;95714.94;;;12.10;100.00
18167;BME280;9208;42.688;23.404;2023-05-07T00:26:36;95727.28;;;12.00;100.00
18167;BME280;9208;42.688;23.404;2023-05-07T00:29:02;95715.97;;;11.93;100.00
18167;BME280;9208;42.688;23.404;2023-05-07T00:31:27;95717.25;;;11.97;100.00
18167;BME280;9208;42.688;23.404;2023-05-07T00:33:53;95708.13;;;12.06;100.00
18167;BME280;9208;42.688;23.404;2023-05-07T00:36:18;95716.09;;;12.24;100.00
18167;BME280;9208;42.688;23.404;2023-05-07T00:38:43;95713.91;;;12.28;100.00
18167;BME280;9208;42.688;23.404;2023-05-07T00:41:09;95719.34;;;12.22;100.00
18167;BME280;9208;42.688;23.404;2023-05-07T00:43:34;95721.88;;;12.26;100.00
18167;BME280;9208;42.688;23.404;2023-05-07T00:46:00;95715.41;;;12.29;100.00
18167;BME280;9208;42.688;23.404;2023-05-07T00:48:26;95724.47;;;12.35;100.00
18167;BME280;9208;42.688;23.404;2023-05-07T00:50:52;95731.84;;;12.43;100.00
18167;BME280;9208;42.688;23.404;2023-05-07T00:53:18;95733.06;;;12.42;100.00
18167;BME280;9208;42.688;23.404;2023-05-07T00:55:43;95728.88;;;12.47;100.00
18167;BME280;9208;42.688;23.404;2023-05-07T00:58:09;95729.91;;;12.49;100.00
18167;BME280;9208;42.688;23.404;2023-05-07T01:00:34;95731.19;;;12.54;100.00
18167;BME280;9208;42.688;23.404;2023-05-07T01:03:01;95735.63;;;12.46;100.00
18167;BME280;9208;42.688;23.404;2023-05-07T01:05:27;95735.00;;;12.36;100.00
18167;BME280;9208;42.688;23.404;2023-05-07T01:07:53;95728.13;;;12.26;100.00
18167;BME280;9208;42.688;23.404;2023-05-07T01:10:21;95721.53;;;12.18;100.00
18167;BME280;9208;42.688;23.404;2023-05-07T01:12:48;95732.69;;;12.29;100.00
18167;BME280;9208;42.688;23.404;2023-05-07T01:15:14;95735.06;;;12.22;100.00
18167;BME280;9208;42.688;23.404;2023-05-07T01:17:41;95736.09;;;12.24;100.00
18167;BME280;9208;42.688;23.404;2023-05-07T01:20:09;95736.09;;;12.24;100.00
18167;BME280;9208;42.688;23.404;2023-05-07T01:22:38;95727.97;;;12.15;100.00
18167;BME280;9208;42.688;23.404;2023-05-07T01:25:05;95726.00;;;12.16;100.00
18167;BME280;9208;42.688;23.404;2023-05-07T01:27:31;95719.88;;;12.06;100.00
18167;BME280;9208;42.688;23.404;2023-05-07T01:29:58;95727.03;;;12.18;100.00
18167;BME280;9208;42.688;23.404;2023-05-07T01:32:38;95725.19;;;12.10;100.00
18167;BME280;9208;42.688;23.404;2023-05-07T01:35:07;95726.69;;;12.11;100.00
18167;BME280;9208;42.688;23.404;2023-05-07T01:37:35;95734.38;;;12.07;100.00
18167;BME280;9208;42.688;23.404;2023-05-07T01:40:02;95716.72;;;11.93;100.00
18167;BME280;9208;42.688;23.404;2023-05-07T01:42:29;95725.44;;;11.92;100.00
18167;BME280;9208;42.688;23.404;2023-05-07T01:44:54;95725.09;;;11.84;100.00
18167;BME280;9208;42.688;23.404;2023-05-07T01:47:20;95726.31;;;11.83;100.00
18167;BME280;9208;42.688;23.404;2023-05-07T01:49:46;95716.00;;;11.78;100.00
18167;BME280;9208;42.688;23.404;2023-05-07T01:52:12;95710.28;;;11.47;100.00
18167;BME280;9208;42.688;23.404;2023-05-07T01:54:38;95710.59;;;11.35;100.00
18167;BME280;9208;42.688;23.404;2023-05-07T01:57:03;95709.78;;;11.29;100.00
18167;BME280;9208;42.688;23.404;2023-05-07T01:59:29;95707.81;;;11.15;100.00
18167;BME280;9208;42.688;23.404;2023-05-07T02:01:54;95703.81;;;11.16;100.00
18167;BME280;9208;42.688;23.404;2023-05-07T02:04:20;95692.84;;;11.16;100.00
18167;BME280;9208;42.688;23.404;2023-05-07T02:06:45;95701.91;;;11.22;100.00
18167;BME280;9208;42.688;23.404;2023-05-07T02:09:11;95690.00;;;11.25;100.00
18167;BME280;9208;42.688;23.404;2023-05-07T02:11:36;95688.66;;;11.35;100.00
18167;BME280;9208;42.688;23.404;2023-05-07T02:14:02;95687.97;;;11.40;100.00
18167;BME280;9208;42.688;23.404;2023-05-07T02:16:27;95682.38;;;11.34;100.00
18167;BME280;9208;42.688;23.404;2023-05-07T02:18:53;95690.34;;;11.32;100.00
18167;BME280;9208;42.688;23.404;2023-05-07T02:21:18;95685.78;;;11.44;100.00
18167;BME280;9208;42.688;23.404;2023-05-07T02:23:44;95680.28;;;11.44;100.00
18167;BME280;9208;42.688;23.404;2023-05-07T02:26:10;95679.69;;;11.54;100.00
18167;BME280;9208;42.688;23.404;2023-05-07T02:28:36;95680.84;;;11.62;100.00
18167;BME280;9208;42.688;23.404;2023-05-07T02:31:04;95692.56;;;11.63;100.00
18167;BME280;9208;42.688;23.404;2023-05-07T02:33:30;95671.72;;;11.56;100.00
18167;BME280;9208;42.688;23.404;2023-05-07T02:35:56;95686.78;;;11.75;100.00
18167;BME280;9208;42.688;23.404;2023-05-07T02:38:22;95682.69;;;11.71;100.00
18167;BME280;9208;42.688;23.404;2023-05-07T02:40:47;95686.56;;;11.79;100.00
18167;BME280;9208;42.688;23.404;2023-05-07T02:43:13;95682.84;;;11.82;100.00
18167;BME280;9208;42.688;23.404;2023-05-07T02:45:39;95681.06;;;11.79;100.00
18167;BME280;9208;42.688;23.404;2023-05-07T02:48:04;95680.59;;;11.80;100.00
18167;BME280;9208;42.688;23.404;2023-05-07T02:50:31;95684.56;;;11.79;100.00
18167;BME280;9208;42.688;23.404;2023-05-07T02:52:58;95684.16;;;11.86;100.00
18167;BME280;9208;42.688;23.404;2023-05-07T02:55:23;95668.03;;;11.74;100.00
18167;BME280;9208;42.688;23.404;2023-05-07T02:57:49;95686.34;;;11.82;100.00
18167;BME280;9208;42.688;23.404;2023-05-07T03:00:18;95686.56;;;11.79;100.00
18167;BME280;9208;42.688;23.404;2023-05-07T03:02:44;95681.06;;;11.79;100.00
18167;BME280;9208;42.688;23.404;2023-05-07T03:05:10;95685.19;;;11.89;100.00
18167;BME280;9208;42.688;23.404;2023-05-07T03:07:36;95692.31;;;11.81;100.00
18167;BME280;9208;42.688;23.404;2023-05-07T03:10:02;95690.25;;;11.76;100.00
18167;BME280;9208;42.688;23.404;2023-05-07T03:12:28;95696.78;;;11.78;100.00
18167;BME280;9208;42.688;23.404;2023-05-07T03:14:53;95698.22;;;11.74;100.00
18167;BME280;9208;42.688;23.404;2023-05-07T03:17:20;95694.25;;;11.75;100.00
18167;BME280;9208;42.688;23.404;2023-05-07T03:19:45;95705.03;;;11.78;100.00
18167;BME280;9208;42.688;23.404;2023-05-07T03:22:11;95700.38;;;11.84;100.00
18167;BME280;9208;42.688;23.404;2023-05-07T03:24:36;95707.09;;;11.83;100.00
18167;BME280;9208;42.688;23.404;2023-05-07T03:27:02;95703.84;;;11.85;100.00
18167;BME280;9208;42.688;23.404;2023-05-07T03:29:27;95704.81;;;11.82;100.00
18167;BME280;9208;42.688;23.404;2023-05-07T03:31:53;95704.63;;;11.85;100.00
18167;BME280;9208;42.688;23.404;2023-05-07T03:34:19;95708.88;;;11.86;100.00
18167;BME280;9208;42.688;23.404;2023-05-07T03:36:48;95700.09;;;11.82;100.00
18167;BME280;9208;42.688;23.404;2023-05-07T03:39:14;95698.91;;;11.89;100.00
18167;BME280;9208;42.688;23.404;2023-05-07T03:41:39;95700.25;;;11.93;100.00
18167;BME280;9208;42.688;23.404;2023-05-07T03:44:05;95703.94;;;11.90;100.00
18167;BME280;9208;42.688;23.404;2023-05-07T03:46:31;95714.03;;;11.99;100.00
18167;BME280;9208;42.688;23.404;2023-05-07T03:48:58;95711.56;;;12.01;100.00
18167;BME280;9208;42.688;23.404;2023-05-07T03:51:23;95713.63;;;12.06;100.00
18167;BME280;9208;42.688;23.404;2023-05-07T03:53:49;95717.88;;;12.07;100.00
18167;BME280;9208;42.688;23.404;2023-05-07T03:56:17;95717.63;;;12.05;100.00
18167;BME280;9208;42.688;23.404;2023-05-07T03:58:43;95724.00;;;11.96;100.00
18167;BME280;9208;42.688;23.404;2023-05-07T04:01:08;95720.56;;;12.01;100.00
18167;BME280;9208;42.688;23.404;2023-05-07T04:03:34;95728.81;;;12.01;100.00
18167;BME280;9208;42.688;23.404;2023-05-07T04:05:59;95724.75;;;11.97;100.00
18167;BME280;9208;42.688;23.404;2023-05-07T04:08:25;95727.09;;;12.04;100.00
18167;BME280;9208;42.688;23.404;2023-05-07T04:10:55;95737.88;;;12.07;100.00
18167;BME280;9208;42.688;23.404;2023-05-07T04:13:20;95739.19;;;12.12;100.00
18167;BME280;9208;42.688;23.404;2023-05-07T04:15:46;95743.81;;;12.20;100.00
18167;BME280;9208;42.688;23.404;2023-05-07T04:18:11;95746.13;;;12.27;100.00
18167;BME280;9208;42.688;23.404;2023-05-07T04:20:37;95750.72;;;12.36;100.00
18167;BME280;9208;42.688;23.404;2023-05-07T04:23:02;95766.13;;;12.48;100.00
18167;BME280;9208;42.688;23.404;2023-05-07T04:25:28;95758.69;;;12.54;100.00
18167;BME280;9208;42.688;23.404;2023-05-07T04:27:53;95766.78;;;12.63;100.00
18167;BME280;9208;42.688;23.404;2023-05-07T04:30:19;95769.03;;;12.59;100.00
18167;BME280;9208;42.688;23.404;2023-05-07T04:32:44;95769.81;;;12.65;100.00
18167;BME280;9208;42.688;23.404;2023-05-07T04:35:10;95759.09;;;12.67;100.00
18167;BME280;9208;42.688;23.404;2023-05-07T04:37:35;95767.94;;;12.76;100.00
18167;BME280;9208;42.688;23.404;2023-05-07T04:40:01;95768.22;;;12.78;100.00
18167;BME280;9208;42.688;23.404;2023-05-07T04:42:29;95776.81;;;12.86;100.00
18167;BME280;9208;42.688;23.404;2023-05-07T04:44:54;95782.88;;;12.90;100.00
18167;BME280;9208;42.688;23.404;2023-05-07T04:47:20;95776.94;;;12.97;100.00
18167;BME280;9208;42.688;23.404;2023-05-07T04:49:46;95775.53;;;13.07;100.00
18167;BME280;9208;42.688;23.404;2023-05-07T04:52:11;95779.38;;;13.15;100.00
18167;BME280;9208;42.688;23.404;2023-05-07T04:54:37;95781.50;;;13.25;100.00
18167;BME280;9208;42.688;23.404;2023-05-07T04:57:05;95779.53;;;13.31;100.00
18167;BME280;9208;42.688;23.404;2023-05-07T04:59:32;95779.09;;;13.38;100.00
18167;BME280;9208;42.688;23.404;2023-05-07T05:01:58;95778.94;;;13.47;100.00
18167;BME280;9208;42.688;23.404;2023-05-07T05:04:23;95769.66;;;13.50;100.00
18167;BME280;9208;42.688;23.404;2023-05-07T05:06:49;95767.50;;;13.60;100.00
18167;BME280;9208;42.688;23.404;2023-05-07T05:09:15;95757.72;;;13.59;100.00
18167;BME280;9208;42.688;23.404;2023-05-07T05:11:41;95767.38;;;13.74;100.00
18167;BME280;9208;42.688;23.404;2023-05-07T05:14:06;95766.16;;;13.81;100.00
18167;BME280;9208;42.688;23.404;2023-05-07T05:16:32;95770.94;;;13.86;100.00
18167;BME280;9208;42.688;23.404;2023-05-07T05:18:59;95767.72;;;13.87;100.00
18167;BME280;9208;42.688;23.404;2023-05-07T05:21:24;95771.28;;;13.99;100.00
18167;BME280;9208;42.688;23.404;2023-05-07T05:23:49;95776.81;;;13.99;100.00
18167;BME280;9208;42.688;23.404;2023-05-07T05:26:15;95777.06;;;14.01;100.00
18167;BME280;9208;42.688;23.404;2023-05-07T05:28:40;95779.56;;;14.04;100.00
18167;BME280;9208;42.688;23.404;2023-05-07T05:31:06;95785.09;;;14.04;100.00
18167;BME280;9208;42.688;23.404;2023-05-07T05:33:31;95780.38;;;14.10;100.00
18167;BME280;9208;42.688;23.404;2023-05-07T05:35:57;95784.91;;;14.13;100.00
18167;BME280;9208;42.688;23.404;2023-05-07T05:38:25;95782.41;;;14.15;100.00
18167;BME280;9208;42.688;23.404;2023-05-07T05:40:51;95773.09;;;14.07;100.00
18167;BME280;9208;42.688;23.404;2023-05-07T05:43:16;95777.91;;;14.18;100.00
18167;BME280;9208;42.688;23.404;2023-05-07T05:45:41;95788.94;;;14.18;100.00
18167;BME280;9208;42.688;23.404;2023-05-07T05:48:07;95777.34;;;14.03;100.00
18167;BME280;9208;42.688;23.404;2023-05-07T05:50:34;95784.06;;;13.96;100.00
18167;BME280;9208;42.688;23.404;2023-05-07T05:53:01;95780.28;;;13.99;100.00
18167;BME280;9208;42.688;23.404;2023-05-07T05:55:26;95770.81;;;14.06;100.00
18167;BME280;9208;42.688;23.404;2023-05-07T05:57:52;95780.03;;;13.97;100.00
18167;BME280;9208;42.688;23.404;2023-05-07T06:00:17;95781.31;;;14.02;100.00
18167;BME280;9208;42.688;23.404;2023-05-07T06:02:43;95782.13;;;14.08;100.00
18167;BME280;9208;42.688;23.404;2023-05-07T06:05:08;95779.63;;;14.10;100.00
18167;BME280;9208;42.688;23.404;2023-05-07T06:07:34;95780.47;;;14.21;100.00
18167;BME280;9208;42.688;23.404;2023-05-07T06:10:03;95776.22;;;14.26;100.00
18167;BME280;9208;42.688;23.404;2023-05-07T06:12:28;95786.06;;;14.38;100.00
18167;BME280;9208;42.688;23.404;2023-05-07T06:14:54;95792.91;;;14.48;100.00
18167;BME280;9208;42.688;23.404;2023-05-07T06:17:19;95777.63;;;14.58;100.00
18167;BME280;9208;42.688;23.404;2023-05-07T06:19:45;95767.09;;;14.56;100.00
18167;BME280;9208;42.688;23.404;2023-05-07T06:22:10;95778.66;;;14.60;100.00
18167;BME280;9208;42.688;23.404;2023-05-07T06:24:36;95774.91;;;14.69;100.00
18167;BME280;9208;42.688;23.404;2023-05-07T06:27:01;95774.69;;;14.72;100.00
18167;BME280;9208;42.688;23.404;2023-05-07T06:29:27;95768.16;;;14.75;100.00
18167;BME280;9208;42.688;23.404;2023-05-07T06:31:53;95772.69;;;14.78;100.00
18167;BME280;9208;42.688;23.404;2023-05-07T06:34:18;95770.91;;;14.70;100.00
18167;BME280;9208;42.688;23.404;2023-05-07T06:36:44;95765.16;;;14.79;100.00
18167;BME280;9208;42.688;23.404;2023-05-07T06:39:09;95760.44;;;14.90;100.00
18167;BME280;9208;42.688;23.404;2023-05-07T06:41:35;95763.69;;;14.89;100.00
18167;BME280;9208;42.688;23.404;2023-05-07T06:44:01;95755.41;;;14.89;100.00
18167;BME280;9208;42.688;23.404;2023-05-07T06:46:28;95762.44;;;14.90;100.00
18167;BME280;9208;42.688;23.404;2023-05-07T06:48:54;95761.69;;;14.95;100.00
18167;BME280;9208;42.688;23.404;2023-05-07T06:51:20;95740.88;;;14.99;100.00
18167;BME280;9208;42.688;23.404;2023-05-07T06:53:45;95748.69;;;15.17;100.00
18167;BME280;9208;42.688;23.404;2023-05-07T06:56:10;95738.88;;;15.22;100.00
18167;BME280;9208;42.688;23.404;2023-05-07T06:58:37;95745.16;;;15.28;100.00
18167;BME280;9208;42.688;23.404;2023-05-07T07:01:02;95748.44;;;15.32;100.00
18167;BME280;9208;42.688;23.404;2023-05-07T07:03:28;95746.72;;;15.40;100.00
18167;BME280;9208;42.688;23.404;2023-05-07T07:05:54;95747.72;;;15.48;100.00
18167;BME280;9208;42.688;23.404;2023-05-07T07:08:20;95749.72;;;15.47;100.00
18167;BME280;9208;42.688;23.404;2023-05-07T07:10:48;95758.53;;;15.62;100.00
18167;BME280;9208;42.688;23.404;2023-05-07T07:13:14;95747.97;;;15.61;100.00
18167;BME280;9208;42.688;23.404;2023-05-07T07:15:40;95745.94;;;15.67;100.00
18167;BME280;9208;42.688;23.404;2023-05-07T07:18:06;95744.44;;;15.82;100.00
18167;BME280;9208;42.688;23.404;2023-05-07T07:20:32;95749.69;;;15.91;100.00
18167;BME280;9208;42.688;23.404;2023-05-07T07:22:57;95736.63;;;15.81;100.00
18167;BME280;9208;42.688;23.404;2023-05-07T07:25:22;95737.94;;;15.69;100.00
18167;BME280;9208;42.688;23.404;2023-05-07T07:27:49;95736.63;;;15.81;100.00
18167;BME280;9208;42.688;23.404;2023-05-07T07:30:14;95740.16;;;15.87;100.00
18167;BME280;9208;42.688;23.404;2023-05-07T07:32:40;95740.41;;;16.00;100.00
18167;BME280;9208;42.688;23.404;2023-05-07T07:35:06;95751.66;;;16.13;100.00
18167;BME280;9208;42.688;23.404;2023-05-07T07:37:32;95741.34;;;16.19;100.00
18167;BME280;9208;42.688;23.404;2023-05-07T07:39:57;95733.28;;;16.21;100.00
18167;BME280;9208;42.688;23.404;2023-05-07T07:42:22;95753.88;;;16.36;100.00
18167;BME280;9208;42.688;23.404;2023-05-07T07:44:48;95744.81;;;16.41;100.00
18167;BME280;9208;42.688;23.404;2023-05-07T07:47:13;95753.34;;;16.49;100.00
18167;BME280;9208;42.688;23.404;2023-05-07T07:49:39;95762.13;;;16.58;100.00
18167;BME280;9208;42.688;23.404;2023-05-07T07:52:04;95760.84;;;16.65;100.00
18167;BME280;9208;42.688;23.404;2023-05-07T07:54:30;95751.53;;;16.68;100.00
18167;BME280;9208;42.688;23.404;2023-05-07T07:56:58;95756.25;;;16.78;100.00
18167;BME280;9208;42.688;23.404;2023-05-07T07:59:25;95763.53;;;16.76;100.00
18167;BME280;9208;42.688;23.404;2023-05-07T08:01:50;95755.19;;;16.87;100.00
18167;BME280;9208;42.688;23.404;2023-05-07T08:04:17;95750.81;;;17.02;100.00
18167;BME280;9208;42.688;23.404;2023-05-07T08:06:42;95746.50;;;17.07;100.00
18167;BME280;9208;42.688;23.404;2023-05-07T08:09:08;95748.22;;;17.15;100.00
18167;BME280;9208;42.688;23.404;2023-05-07T08:11:34;95743.69;;;17.18;100.00
18167;BME280;9208;42.688;23.404;2023-05-07T08:13:59;95738.38;;;17.20;100.00
18167;BME280;9208;42.688;23.404;2023-05-07T08:16:25;95727.69;;;17.35;100.00
18167;BME280;9208;42.688;23.404;2023-05-07T08:18:50;95741.94;;;17.55;100.00
18167;BME280;9208;42.688;23.404;2023-05-07T08:21:16;95734.31;;;17.61;100.00
18167;BME280;9208;42.688;23.404;2023-05-07T08:23:41;95741.31;;;17.68;100.00
18167;BME280;9208;42.688;23.404;2023-05-07T08:26:08;95737.41;;;17.82;100.00
18167;BME280;9208;42.688;23.404;2023-05-07T08:28:33;95743.59;;;17.93;100.00
18167;BME280;9208;42.688;23.404;2023-05-07T08:30:59;95745.22;;;18.07;100.00
18167;BME280;9208;42.688;23.404;2023-05-07T08:33:26;95727.59;;;18.05;100.00
18167;BME280;9208;42.688;23.404;2023-05-07T08:35:51;95721.81;;;18.03;100.00
18167;BME280;9208;42.688;23.404;2023-05-07T08:38:17;95728.66;;;18.02;100.00
18167;BME280;9208;42.688;23.404;2023-05-07T08:40:42;95723.78;;;18.08;100.00
18167;BME280;9208;42.688;23.404;2023-05-07T08:43:08;95718.56;;;18.23;100.00
18167;BME280;9208;42.688;23.404;2023-05-07T08:45:34;95727.13;;;18.25;99.08
18167;BME280;9208;42.688;23.404;2023-05-07T08:48:02;95721.47;;;18.36;98.76
18167;BME280;9208;42.688;23.404;2023-05-07T08:50:29;95719.84;;;18.46;97.94
18167;BME280;9208;42.688;23.404;2023-05-07T08:52:55;95711.06;;;18.42;95.52
18167;BME280;9208;42.688;23.404;2023-05-07T08:55:22;95727.00;;;18.60;94.91
18167;BME280;9208;42.688;23.404;2023-05-07T08:57:48;95720.28;;;18.74;94.17
18167;BME280;9208;42.688;23.404;2023-05-07T09:00:14;95730.56;;;18.79;92.44
18167;BME280;9208;42.688;23.404;2023-05-07T09:02:39;95757.97;;;18.88;87.43
18167;BME280;9208;42.688;23.404;2023-05-07T09:05:05;95752.41;;;18.88;85.40
18167;BME280;9208;42.688;23.404;2023-05-07T09:07:31;95741.59;;;19.03;85.60
18167;BME280;9208;42.688;23.404;2023-05-07T09:09:56;95746.97;;;19.14;84.33
18167;BME280;9208;42.688;23.404;2023-05-07T09:12:23;95754.97;;;19.23;82.63
18167;BME280;9208;42.688;23.404;2023-05-07T09:14:49;95751.38;;;19.28;82.25
18167;BME280;9208;42.688;23.404;2023-05-07T09:17:16;95752.09;;;19.47;81.65
18167;BME280;9208;42.688;23.404;2023-05-07T09:19:44;95756.94;;;19.60;79.90
18167;BME280;9208;42.688;23.404;2023-05-07T09:22:09;95769.09;;;19.75;78.46
18167;BME280;9208;42.688;23.404;2023-05-07T09:24:35;95835.66;;;19.73;72.37
18167;BME280;9208;42.688;23.404;2023-05-07T09:27:03;95812.56;;;19.78;72.96
18167;BME280;9208;42.688;23.404;2023-05-07T09:29:29;95798.44;;;19.89;73.08
18167;BME280;9208;42.688;23.404;2023-05-07T09:32:03;95789.16;;;20.00;73.19
18167;BME280;9208;42.688;23.404;2023-05-07T09:34:29;95822.56;;;20.18;71.38
18167;BME280;9208;42.688;23.404;2023-05-07T09:36:55;95832.31;;;20.25;70.07
18167;BME280;9208;42.688;23.404;2023-05-07T09:39:22;95821.38;;;20.27;70.32
18167;BME280;9208;42.688;23.404;2023-05-07T09:41:48;95813.13;;;20.21;71.03
18167;BME280;9208;42.688;23.404;2023-05-07T09:44:20;95795.16;;;20.35;71.50
18167;BME280;9208;42.688;23.404;2023-05-07T09:46:47;95781.25;;;20.48;72.70
18167;BME280;9208;42.688;23.404;2023-05-07T09:49:22;95779.56;;;20.58;72.30
18167;BME280;9208;42.688;23.404;2023-05-07T09:51:50;95780.38;;;20.66;72.10
18167;BME280;9208;42.688;23.404;2023-05-07T09:54:16;95775.47;;;20.72;71.76
18167;BME280;9208;42.688;23.404;2023-05-07T09:56:45;95771.28;;;20.79;72.22
18167;BME280;9208;42.688;23.404;2023-05-07T09:59:13;95786.28;;;20.89;70.56
18167;BME280;9208;42.688;23.404;2023-05-07T10:01:43;95788.84;;;21.00;69.44
18167;BME280;9208;42.688;23.404;2023-05-07T10:04:10;95807.38;;;21.10;68.24
18167;BME280;9208;42.688;23.404;2023-05-07T10:06:36;95807.63;;;21.12;67.76
18167;BME280;9208;42.688;23.404;2023-05-07T10:09:03;95796.91;;;21.03;67.68
18167;BME280;9208;42.688;23.404;2023-05-07T10:11:32;95799.28;;;20.99;68.32
18167;BME280;9208;42.688;23.404;2023-05-07T10:13:59;95802.88;;;21.07;68.23
18167;BME280;9208;42.688;23.404;2023-05-07T10:16:34;95810.16;;;21.23;66.36
18167;BME280;9208;42.688;23.404;2023-05-07T10:19:05;95838.56;;;21.35;63.06
18167;BME280;9208;42.688;23.404;2023-05-07T10:21:36;95857.00;;;21.38;61.84
18167;BME280;9208;42.688;23.404;2023-05-07T10:24:08;95860.44;;;21.44;61.56
18167;BME280;9208;42.688;23.404;2023-05-07T10:26:42;95857.00;;;21.51;61.36
18167;BME280;9208;42.688;23.404;2023-05-07T10:32:06;95842.66;;;21.67;61.65
18167;BME280;9208;42.688;23.404;2023-05-07T10:34:37;95850.50;;;21.82;59.62
18167;BME280;9208;42.688;23.404;2023-05-07T10:37:03;95854.00;;;21.82;58.81
18167;BME280;9208;42.688;23.404;2023-05-07T10:39:30;95869.41;;;21.96;57.12
18167;BME280;9208;42.688;23.404;2023-05-07T10:41:56;95879.47;;;22.12;56.87
18167;BME280;9208;42.688;23.404;2023-05-07T10:44:28;95869.13;;;22.20;57.17
18167;BME280;9208;42.688;23.404;2023-05-07T10:47:11;95869.38;;;22.30;56.72
18167;BME280;9208;42.688;23.404;2023-05-07T10:52:31;95861.56;;;22.49;57.55
18167;BME280;9208;42.688;23.404;2023-05-07T10:57:40;95862.50;;;22.51;57.02
18167;BME280;9208;42.688;23.404;2023-05-07T11:05:30;95851.91;;;22.78;57.35
18167;BME280;9208;42.688;23.404;2023-05-07T11:08:02;95841.13;;;22.82;57.30
18167;BME280;9208;42.688;23.404;2023-05-07T11:13:18;95857.09;;;23.02;56.65
18167;BME280;9208;42.688;23.404;2023-05-07T11:16:04;95858.44;;;23.08;55.56
18167;BME280;9208;42.688;23.404;2023-05-07T11:18:46;95862.94;;;23.11;55.92
18167;BME280;9208;42.688;23.404;2023-05-07T11:21:13;95845.25;;;23.16;57.38
18167;BME280;9208;42.688;23.404;2023-05-07T11:23:57;95847.47;;;23.10;55.59
18167;BME280;9208;42.688;23.404;2023-05-07T11:26:23;95851.34;;;23.07;55.38
18167;BME280;9208;42.688;23.404;2023-05-07T11:28:48;95846.97;;;22.91;55.99
18167;BME280;9208;42.688;23.404;2023-05-07T11:31:21;95836.09;;;22.80;56.24
18167;BME280;9208;42.688;23.404;2023-05-07T11:33:48;95842.66;;;22.90;55.33
18167;BME280;9208;42.688;23.404;2023-05-07T11:36:13;95843.97;;;22.89;55.25
18167;BME280;9208;42.688;23.404;2023-05-07T11:38:39;95834.38;;;22.77;55.83
18167;BME280;9208;42.688;23.404;2023-05-07T11:41:04;95829.50;;;22.70;56.49
18167;BME280;9208;42.688;23.404;2023-05-07T11:43:33;95802.63;;;22.67;56.40
18167;BME280;9208;42.688;23.404;2023-05-07T11:46:10;95797.25;;;22.97;58.27
18167;BME280;9208;42.688;23.404;2023-05-07T11:48:36;95803.25;;;23.09;57.17
18167;BME280;9208;42.688;23.404;2023-05-07T11:51:07;95802.53;;;23.16;56.37
18167;BME280;9208;42.688;23.404;2023-05-07T11:53:42;95819.22;;;23.29;56.19
18167;BME280;9208;42.688;23.404;2023-05-07T11:56:09;95825.22;;;23.33;54.61
18167;BME280;9208;42.688;23.404;2023-05-07T11:58:35;95852.66;;;23.34;52.05
18167;BME280;9208;42.688;23.404;2023-05-07T12:01:00;95854.53;;;23.39;51.74
18167;BME280;9208;42.688;23.404;2023-05-07T12:03:26;95855.69;;;23.44;51.80
18167;BME280;9208;42.688;23.404;2023-05-07T12:05:51;95843.19;;;23.45;52.67
18167;BME280;9208;42.688;23.404;2023-05-07T12:08:17;95819.34;;;23.59;54.14
18167;BME280;9208;42.688;23.404;2023-05-07T12:10:45;95822.38;;;23.68;52.95
18167;BME280;9208;42.688;23.404;2023-05-07T12:13:15;95835.06;;;23.69;51.84
18167;BME280;9208;42.688;23.404;2023-05-07T12:15:41;95842.72;;;23.76;51.02
18167;BME280;9208;42.688;23.404;2023-05-07T12:18:07;95853.25;;;23.98;49.71
18167;BME280;9208;42.688;23.404;2023-05-07T12:20:34;95841.88;;;23.96;50.19
18167;BME280;9208;42.688;23.404;2023-05-07T12:23:04;95865.59;;;23.95;46.45
18167;BME280;9208;42.688;23.404;2023-05-07T12:25:31;95871.13;;;23.88;46.31
18167;BME280;9208;42.688;23.404;2023-05-07T12:27:57;95856.28;;;24.00;47.53
18167;BME280;9208;42.688;23.404;2023-05-07T12:30:24;95855.53;;;24.15;46.17
18167;BME280;9208;42.688;23.404;2023-05-07T12:32:54;95857.06;;;24.23;46.42
18167;BME280;9208;42.688;23.404;2023-05-07T12:35:27;95844.72;;;24.26;46.08
18167;BME280;9208;42.688;23.404;2023-05-07T12:37:56;95852.22;;;24.31;45.03
18167;BME280;9208;42.688;23.404;2023-05-07T12:40:34;95855.56;;;24.30;44.69
18167;BME280;9208;42.688;23.404;2023-05-07T12:43:00;95862.66;;;24.31;44.99
18167;BME280;9208;42.688;23.404;2023-05-07T12:45:25;95845.09;;;24.30;44.16
18167;BME280;9208;42.688;23.404;2023-05-07T12:47:51;95857.22;;;24.33;43.22
18167;BME280;9208;42.688;23.404;2023-05-07T12:50:17;95862.84;;;24.25;43.17
18167;BME280;9208;42.688;23.404;2023-05-07T12:52:47;95856.47;;;24.10;42.88
18167;BME280;9208;42.688;23.404;2023-05-07T12:55:14;95872.88;;;23.98;40.43
18167;BME280;9208;42.688;23.404;2023-05-07T12:57:47;95855.50;;;23.92;40.50
18167;BME280;9208;42.688;23.404;2023-05-07T13:00:14;95868.75;;;23.99;39.54
18167;BME280;9208;42.688;23.404;2023-05-07T13:02:41;95879.25;;;24.06;39.05
18167;BME280;9208;42.688;23.404;2023-05-07T13:05:07;95867.09;;;24.04;38.59
18167;BME280;9208;42.688;23.404;2023-05-07T13:07:33;95873.09;;;24.15;38.96